Time;durP1;ratioP1;P1;durP2;ratioP2;P2;SDS_P1;SDS_P2;PMS_P1;PMS_P2;Temp;Humidity;BMP_temperature;BMP_pressure;BME280_temperature;BME280_humidity;BME280_pressure;Samples;Min_cycle;Max_cycle;Signal;HPM_P1;HPM_P2
2023/11/09 00:01:12;;;;;;;8.60;4.70;;;;;;;5.61;86.65;99660.79;220136;1257;140054;-72
2023/11/09 00:06:15;;;;;;;9.00;5.70;;;;;;;5.49;86.60;99657.34;217611;1261;140838;-72
2023/11/09 00:11:18;;;;;;;10.80;6.80;;;;;;;5.42;86.88;99658.27;219640;1259;139898;-70
2023/11/09 00:16:20;;;;;;;10.60;6.50;;;;;;;5.38;87.38;99659.49;219745;1258;140439;-70
2023/11/09 00:21:23;;;;;;;10.40;5.60;;;;;;;5.35;87.24;99660.88;219420;1257;139594;-70
2023/11/09 00:26:26;;;;;;;8.00;6.50;;;;;;;5.32;87.11;99666.11;219417;1257;140561;-71
2023/11/09 00:31:28;;;;;;;7.50;6.40;;;;;;;5.29;87.40;99660.50;220105;1258;140472;-69
2023/11/09 00:36:32;;;;;;;6.50;5.70;;;;;;;5.24;87.28;99656.14;219881;1257;140045;-71
2023/11/09 00:41:34;;;;;;;7.30;6.50;;;;;;;5.19;87.49;99648.41;219387;1257;139604;-71
2023/11/09 00:46:37;;;;;;;7.90;6.10;;;;;;;5.14;87.24;99643.79;220206;1257;139793;-68
2023/11/09 00:51:42;;;;;;;8.10;5.80;;;;;;;5.08;87.41;99643.29;220065;1258;142642;-69
2023/11/09 00:56:44;;;;;;;15.90;7.60;;;;;;;5.05;87.33;99643.60;220262;1258;139970;-68
2023/11/09 01:01:46;;;;;;;15.90;6.80;;;;;;;5.02;87.31;99640.59;220128;1258;140493;-70
2023/11/09 01:06:49;;;;;;;7.40;5.50;;;;;;;4.94;87.54;99640.81;219766;1258;139709;-71
2023/11/09 01:11:53;;;;;;;13.10;6.50;;;;;;;4.87;87.21;99640.33;220129;1257;224041;-69
2023/11/09 01:16:55;;;;;;;67.10;31.50;;;;;;;4.80;87.42;99635.48;219816;1257;501424;-70
2023/11/09 01:21:59;;;;;;;14.30;7.90;;;;;;;4.73;87.42;99634.55;220093;1257;140510;-70
2023/11/09 01:27:02;;;;;;;12.00;6.60;;;;;;;4.62;87.22;99629.84;220190;1257;141592;-69
2023/11/09 01:32:04;;;;;;;11.60;8.10;;;;;;;4.54;87.15;99632.80;220387;1259;140205;-70
2023/11/09 01:37:10;;;;;;;9.50;6.80;;;;;;;4.46;87.48;99625.30;219004;1257;139670;-68
2023/11/09 01:42:14;;;;;;;6.90;6.10;;;;;;;4.38;87.19;99625.02;220099;1258;139998;-68
2023/11/09 01:47:19;;;;;;;8.10;5.90;;;;;;;4.29;87.33;99626.85;219982;1257;140882;-69
2023/11/09 01:52:22;;;;;;;8.10;6.10;;;;;;;4.24;87.65;99621.90;220138;1257;139306;-68
2023/11/09 01:57:25;;;;;;;10.90;7.30;;;;;;;4.20;87.56;99619.92;218795;1261;140763;-71
2023/11/09 02:02:28;;;;;;;8.40;5.80;;;;;;;4.14;87.69;99622.33;219988;1258;140438;-69
2023/11/09 02:07:34;;;;;;;8.80;6.80;;;;;;;4.08;87.49;99622.41;218846;1260;141084;-69
2023/11/09 02:12:38;;;;;;;8.70;7.50;;;;;;;4.00;87.72;99627.15;217488;1261;139232;-72
2023/11/09 02:17:42;;;;;;;10.90;8.10;;;;;;;3.95;87.83;99629.90;220273;1257;139983;-72
2023/11/09 02:22:47;;;;;;;7.80;5.90;;;;;;;3.92;88.17;99633.05;217643;1261;141105;-71
2023/11/09 02:27:50;;;;;;;8.80;6.40;;;;;;;3.88;88.28;99635.37;220259;1257;140958;-73
2023/11/09 02:32:53;;;;;;;9.50;5.60;;;;;;;3.85;88.41;99638.04;218762;1258;140067;-69
2023/11/09 02:37:56;;;;;;;11.50;7.40;;;;;;;3.85;88.70;99638.68;220496;1257;139967;-69
2023/11/09 02:42:59;;;;;;;10.10;7.10;;;;;;;3.81;88.41;99636.26;220146;1257;140476;-70
2023/11/09 02:48:04;;;;;;;7.30;6.40;;;;;;;3.77;88.60;99633.02;217730;1258;139731;-70
2023/11/09 02:53:07;;;;;;;10.50;7.60;;;;;;;3.74;88.55;99627.08;220246;1257;139423;-70
2023/11/09 02:58:09;;;;;;;8.90;8.00;;;;;;;3.67;88.40;99625.46;220186;1257;140627;-71
2023/11/09 03:03:11;;;;;;;10.40;6.50;;;;;;;3.64;88.65;99622.17;220212;1257;139837;-71
2023/11/09 03:08:14;;;;;;;11.20;7.10;;;;;;;3.63;88.83;99628.61;220304;1257;140211;-71
2023/11/09 03:13:21;;;;;;;10.50;7.20;;;;;;;3.59;88.70;99632.34;220037;1257;140408;-68
2023/11/09 03:18:25;;;;;;;8.90;7.60;;;;;;;3.55;89.09;99627.25;220071;1257;140594;-72
2023/11/09 03:23:28;;;;;;;10.40;8.80;;;;;;;3.49;88.83;99620.71;219961;1257;139959;-71
2023/11/09 03:28:33;;;;;;;12.30;7.60;;;;;;;3.46;88.92;99620.20;219962;1257;140262;-69
2023/11/09 03:33:36;;;;;;;9.20;7.40;;;;;;;3.44;89.12;99623.98;219926;1257;140397;-70
2023/11/09 03:38:39;;;;;;;7.90;6.60;;;;;;;3.41;88.95;99621.02;220303;1257;139401;-71
2023/11/09 03:43:45;;;;;;;9.80;6.90;;;;;;;3.41;89.30;99619.10;218645;1258;139739;-71
2023/11/09 03:48:48;;;;;;;8.80;7.40;;;;;;;3.41;89.46;99620.73;220075;1257;140292;-71
2023/11/09 03:54:16;;;;;;;8.10;5.90;;;;;;;3.42;89.62;99616.77;219156;1257;140401;-71
2023/11/09 03:59:19;;;;;;;8.20;6.20;;;;;;;3.41;89.74;99614.69;220181;1256;141058;-73
2023/11/09 04:04:23;;;;;;;8.30;5.80;;;;;;;3.40;89.68;99602.92;220280;1257;139741;-73
2023/11/09 04:09:26;;;;;;;10.20;7.10;;;;;;;3.40;89.80;99597.53;219679;1256;140339;-72
2023/11/09 04:14:29;;;;;;;7.20;5.30;;;;;;;3.40;89.82;99594.45;220400;1256;141734;-71
2023/11/09 04:19:33;;;;;;;10.70;7.20;;;;;;;3.40;89.93;99587.11;220077;1257;140939;-73
2023/11/09 04:24:36;;;;;;;8.40;6.40;;;;;;;3.41;89.96;99583.64;219972;1257;140176;-73
2023/11/09 04:29:41;;;;;;;12.50;7.30;;;;;;;3.42;90.04;99583.48;218003;1256;141503;-72
2023/11/09 04:34:45;;;;;;;6.60;5.60;;;;;;;3.40;89.88;99574.86;219067;1257;140238;-70
2023/11/09 04:39:51;;;;;;;15.60;7.50;;;;;;;3.37;89.89;99579.27;220243;1256;140179;-71
2023/11/09 04:44:59;;;;;;;9.00;5.80;;;;;;;3.34;90.07;99570.11;220226;1256;140054;-71
2023/11/09 04:50:13;;;;;;;;;;;;;;;3.31;89.92;99570.57;220117;1257;140359;-71
2023/11/09 04:55:31;;;;;;;9.90;7.00;;;;;;;3.23;89.87;99564.42;220427;1257;126715;-71
2023/11/09 05:11:47;;;;;;;7.40;5.60;;;;;;;3.05;89.69;99544.63;220148;1256;139811;-71
2023/11/09 05:16:51;;;;;;;11.10;6.30;;;;;;;3.01;89.60;99545.63;220045;1257;139706;-71
2023/11/09 05:21:54;;;;;;;8.90;6.40;;;;;;;2.97;89.46;99535.62;220089;1257;140648;-71
2023/11/09 05:26:57;;;;;;;11.40;7.50;;;;;;;2.93;89.47;99540.37;219981;1257;141344;-71
2023/11/09 05:32:08;;;;;;;10.80;7.50;;;;;;;2.91;89.42;99544.96;220111;1257;140359;-71
2023/11/09 05:37:11;;;;;;;8.80;7.20;;;;;;;2.90;89.45;99551.35;220055;1257;140898;-70
2023/11/09 05:42:16;;;;;;;8.30;6.90;;;;;;;2.91;89.66;99553.39;219946;1257;140571;-71
2023/11/09 05:47:20;;;;;;;9.60;6.90;;;;;;;2.92;89.68;99548.02;219940;1257;140613;-71
2023/11/09 05:52:22;;;;;;;9.80;7.30;;;;;;;2.94;89.63;99544.10;217465;1257;140131;-69
2023/11/09 05:57:26;;;;;;;11.10;7.00;;;;;;;2.94;89.80;99548.40;220004;1257;140286;-71
2023/11/09 06:02:29;;;;;;;15.30;8.70;;;;;;;2.92;89.63;99542.87;220170;1257;140462;-71
2023/11/09 06:07:32;;;;;;;13.90;9.10;;;;;;;2.93;89.90;99533.11;220150;1256;160272;-71
2023/11/09 06:12:37;;;;;;;12.80;7.90;;;;;;;2.97;89.81;99533.35;220002;1257;141559;-71
2023/11/09 06:17:40;;;;;;;8.70;6.90;;;;;;;3.02;89.85;99534.25;220102;1256;139953;-71
2023/11/09 06:22:44;;;;;;;10.20;6.80;;;;;;;3.16;90.14;99538.88;220340;1256;139494;-70
2023/11/09 06:27:47;;;;;;;9.00;7.00;;;;;;;3.45;90.34;99530.57;220439;1256;140749;-71
2023/11/09 06:32:51;;;;;;;14.00;8.30;;;;;;;3.96;90.34;99527.61;219193;1257;140190;-69
2023/11/09 06:37:54;;;;;;;10.20;7.00;;;;;;;4.63;90.76;99522.41;220216;1256;141286;-71
2023/11/09 06:42:58;;;;;;;14.00;7.90;;;;;;;5.32;89.85;99524.55;219950;1257;140515;-70
2023/11/09 06:48:00;;;;;;;8.70;6.40;;;;;;;5.81;88.79;99520.67;220142;1257;140312;-71
2023/11/09 06:53:03;;;;;;;8.20;6.90;;;;;;;6.16;87.62;99518.55;220076;1257;139844;-71
2023/11/09 06:58:06;;;;;;;11.40;7.10;;;;;;;6.16;86.91;99514.56;220015;1257;140243;-71
2023/11/09 07:03:10;;;;;;;8.30;7.40;;;;;;;5.84;86.06;99517.33;219940;1257;140369;-71
2023/11/09 07:08:13;;;;;;;11.40;6.70;;;;;;;5.58;85.91;99516.58;220450;1256;140261;-71
2023/11/09 07:13:17;;;;;;;9.60;7.90;;;;;;;5.48;86.04;99515.16;220080;1257;139862;-71
2023/11/09 07:18:21;;;;;;;9.50;5.90;;;;;;;5.51;86.28;99517.08;220093;1257;140224;-71
2023/11/09 07:23:27;;;;;;;15.50;6.70;;;;;;;5.64;86.36;99517.55;220114;1257;140151;-70
2023/11/09 07:28:31;;;;;;;11.40;6.50;;;;;;;5.82;86.84;99513.02;220305;1256;140715;-71
2023/11/09 07:33:35;;;;;;;9.50;6.00;;;;;;;5.86;86.32;99506.08;220270;1256;139503;-71
2023/11/09 07:38:39;;;;;;;9.00;5.70;;;;;;;5.84;86.19;99503.55;220072;1257;140146;-71
2023/11/09 07:43:43;;;;;;;8.80;6.80;;;;;;;5.81;86.07;99506.14;219982;1256;140106;-70
2023/11/09 07:48:47;;;;;;;6.50;4.90;;;;;;;5.75;85.98;99505.11;220032;1256;140064;-71
2023/11/09 07:53:51;;;;;;;8.70;5.80;;;;;;;5.72;85.75;99504.71;219361;1257;140433;-71
2023/11/09 07:58:54;;;;;;;7.80;5.50;;;;;;;5.77;86.58;99500.70;220022;1258;140223;-70
2023/11/09 08:03:57;;;;;;;11.30;6.00;;;;;;;5.85;86.30;99503.44;218825;1257;139706;-70
2023/11/09 08:09:09;;;;;;;5.50;4.70;;;;;;;6.01;86.90;99502.63;217760;1258;140107;-71
2023/11/09 08:14:14;;;;;;;9.20;6.20;;;;;;;6.21;86.92;99499.14;220085;1257;140989;-71
2023/11/09 08:19:19;;;;;;;16.70;6.40;;;;;;;6.39;86.43;99499.21;219953;1257;140190;-71
2023/11/09 08:24:24;;;;;;;8.90;5.70;;;;;;;6.55;86.72;99498.69;217266;1259;139873;-71
2023/11/09 08:29:28;;;;;;;6.20;5.60;;;;;;;6.69;86.16;99502.48;218689;1258;139752;-71
2023/11/09 08:34:31;;;;;;;6.70;4.50;;;;;;;6.80;85.81;99494.59;220121;1257;142279;-72
2023/11/09 08:39:34;;;;;;;9.00;6.30;;;;;;;6.95;86.23;99491.02;218115;1257;139634;-71
2023/11/09 08:44:38;;;;;;;8.60;4.50;;;;;;;7.12;85.97;99481.92;219836;1256;140362;-72
2023/11/09 08:49:41;;;;;;;7.10;4.80;;;;;;;7.25;85.72;99467.85;219810;1256;141153;-71
2023/11/09 08:54:46;;;;;;;8.00;4.90;;;;;;;7.51;85.88;99461.17;220081;1257;139738;-71
2023/11/09 08:59:50;;;;;;;7.90;4.40;;;;;;;7.73;85.71;99453.59;220134;1257;139503;-72
2023/11/09 09:04:57;;;;;;;7.70;5.20;;;;;;;7.98;85.20;99443.88;219974;1257;141935;-72
2023/11/09 09:10:00;;;;;;;4.80;3.70;;;;;;;8.21;85.13;99435.39;220160;1257;140306;-72
2023/11/09 09:15:12;;;;;;;8.30;5.90;;;;;;;8.45;84.67;99435.98;220096;1257;140947;-72
2023/11/09 09:20:19;;;;;;;7.80;5.20;;;;;;;8.69;84.02;99441.02;220232;1257;139718;-72
2023/11/09 09:25:25;;;;;;;15.10;5.40;;;;;;;8.87;83.73;99438.80;220084;1256;140556;-72
2023/11/09 09:30:29;;;;;;;5.90;4.10;;;;;;;9.02;82.95;99437.44;220082;1258;139926;-71
2023/11/09 09:35:32;;;;;;;8.30;4.60;;;;;;;9.19;82.86;99436.32;220246;1258;140050;-71
2023/11/09 09:40:49;;;;;;;6.50;5.10;;;;;;;9.44;82.60;99439.36;220420;1256;139916;-71
2023/11/09 09:45:57;;;;;;;7.10;5.00;;;;;;;9.63;81.84;99426.45;220425;1257;140465;-71
2023/11/09 09:51:06;;;;;;;7.10;5.80;;;;;;;9.89;81.57;99422.15;220266;1256;151453;-70
2023/11/09 09:56:12;;;;;;;9.10;5.10;;;;;;;10.13;80.87;99414.07;218383;1256;140517;-70
2023/11/09 10:01:19;;;;;;;8.90;3.80;;;;;;;10.35;80.41;99410.80;218273;1257;141815;-70
2023/11/09 10:06:23;;;;;;;7.80;4.40;;;;;;;10.51;79.95;99406.44;219996;1257;140451;-71
2023/11/09 10:11:27;;;;;;;6.20;4.40;;;;;;;10.62;79.25;99398.25;220251;1256;141323;-71
2023/11/09 10:16:34;;;;;;;12.40;4.30;;;;;;;10.70;78.81;99394.04;220395;1256;140970;-71
2023/11/09 10:21:38;;;;;;;;;;;;;;;10.84;78.33;99384.05;220368;1256;141357;-71
2023/11/09 10:26:44;;;;;;;4.90;3.30;;;;;;;10.96;78.00;99390.60;219020;1256;126617;-71
2023/11/09 10:31:50;;;;;;;7.20;3.80;;;;;;;11.07;77.54;99383.47;220064;1256;141662;-72
2023/11/09 10:36:56;;;;;;;4.60;4.20;;;;;;;11.22;77.30;99369.91;219512;1256;142698;-70
2023/11/09 10:42:04;;;;;;;4.30;2.70;;;;;;;11.19;76.05;99359.05;220374;1256;141281;-72
2023/11/09 10:47:09;;;;;;;6.30;3.50;;;;;;;11.04;76.03;99363.84;220228;1257;140339;-71
2023/11/09 10:52:19;;;;;;;3.20;2.90;;;;;;;11.01;75.89;99360.93;220030;1257;140114;-68
2023/11/09 10:57:22;;;;;;;3.50;3.00;;;;;;;10.95;75.45;99356.34;218610;1258;140008;-73
2023/11/09 11:02:32;;;;;;;13.90;3.60;;;;;;;11.10;75.44;99352.40;218300;1257;140506;-71
2023/11/09 11:07:38;;;;;;;4.50;3.50;;;;;;;11.37;74.91;99339.98;220376;1256;141332;-71
2023/11/09 11:12:44;;;;;;;5.30;3.60;;;;;;;11.58;74.82;99336.02;220164;1258;140373;-72
2023/11/09 11:18:02;;;;;;;5.50;3.00;;;;;;;11.73;73.88;99334.61;220208;1257;140481;-72
2023/11/09 11:23:19;;;;;;;3.80;2.10;;;;;;;11.81;73.76;99320.84;220158;1256;140439;-72
2023/11/09 11:28:29;;;;;;;3.60;3.20;;;;;;;11.96;73.19;99322.41;220257;1256;140359;-71
2023/11/09 11:33:36;;;;;;;5.50;2.40;;;;;;;12.01;72.90;99319.47;220237;1257;141435;-72
2023/11/09 11:38:42;;;;;;;;;;;;;;;12.08;72.53;99325.52;220347;1257;140052;-71
2023/11/09 11:43:51;;;;;;;3.30;2.50;;;;;;;12.03;71.52;99317.30;220614;1255;127370;-71
2023/11/09 11:48:59;;;;;;;5.30;2.50;;;;;;;12.04;71.35;99302.52;220353;1256;140162;-73
2023/11/09 11:54:08;;;;;;;6.10;3.20;;;;;;;12.00;70.76;99302.63;217833;1258;140348;-72
2023/11/09 11:59:14;;;;;;;4.10;2.50;;;;;;;12.05;70.97;99302.30;220293;1256;139955;-74
2023/11/09 12:04:19;;;;;;;4.80;3.10;;;;;;;12.03;70.29;99301.44;219691;1257;140631;-72
2023/11/09 12:09:24;;;;;;;4.40;2.00;;;;;;;11.99;70.20;99296.00;218971;1257;140032;-72
2023/11/09 12:14:29;;;;;;;6.10;3.20;;;;;;;11.94;69.76;99288.11;220581;1257;140316;-73
2023/11/09 12:19:34;;;;;;;4.30;2.80;;;;;;;11.85;69.38;99280.02;218937;1257;140501;-73
2023/11/09 12:24:40;;;;;;;4.90;2.40;;;;;;;11.79;69.50;99270.58;220119;1256;141241;-72
2023/11/09 12:29:44;;;;;;;3.40;2.00;;;;;;;11.74;69.16;99261.15;220090;1256;141107;-72
2023/11/09 12:34:50;;;;;;;5.20;3.00;;;;;;;11.73;69.34;99251.38;220156;1256;140690;-72
2023/11/09 12:39:56;;;;;;;6.40;2.50;;;;;;;11.83;69.04;99249.40;220250;1257;140019;-71
2023/11/09 12:45:01;;;;;;;5.40;2.90;;;;;;;11.93;69.22;99244.34;218508;1257;143527;-72
2023/11/09 12:50:06;;;;;;;4.60;2.70;;;;;;;12.08;69.09;99238.43;218089;1259;140183;-70
2023/11/09 12:55:13;;;;;;;5.90;3.30;;;;;;;12.06;68.97;99234.14;218669;1257;140016;-72
2023/11/09 13:00:28;;;;;;;6.30;3.10;;;;;;;12.04;68.77;99228.98;220248;1256;140381;-70
2023/11/09 13:05:38;;;;;;;5.00;2.80;;;;;;;11.96;68.62;99226.04;220341;1257;139898;-70
2023/11/09 13:10:54;;;;;;;5.10;3.50;;;;;;;11.95;68.24;99223.04;220028;1257;140882;-71
2023/11/09 13:16:03;;;;;;;4.50;3.00;;;;;;;11.98;68.19;99227.81;219784;1257;532125;-70
2023/11/09 13:21:15;;;;;;;4.30;2.50;;;;;;;12.00;68.25;99230.61;220295;1257;140318;-72
2023/11/09 13:26:27;;;;;;;5.80;3.60;;;;;;;12.04;68.12;99226.59;220441;1256;140289;-72
2023/11/09 13:31:34;;;;;;;3.20;2.30;;;;;;;11.96;67.74;99226.41;220231;1256;140383;-71
2023/11/09 13:36:57;;;;;;;2.10;1.90;;;;;;;11.94;68.01;99230.95;220395;1257;139977;-72
2023/11/09 13:42:10;;;;;;;3.50;2.10;;;;;;;11.91;67.55;99231.56;220329;1256;139890;-71
2023/11/09 13:47:22;;;;;;;3.10;2.10;;;;;;;11.82;67.34;99222.47;220309;1257;140134;-72
2023/11/09 13:52:38;;;;;;;4.10;2.40;;;;;;;11.73;66.79;99210.85;220195;1256;141760;-70
2023/11/09 13:57:45;;;;;;;3.50;2.30;;;;;;;11.63;66.99;99206.05;220345;1256;140562;-70
2023/11/09 14:02:48;;;;;;;2.00;1.90;;;;;;;11.53;66.69;99202.50;220023;1256;140762;-71
2023/11/09 14:07:54;;;;;;;4.50;2.50;;;;;;;11.32;66.53;99201.50;220135;1255;141104;-71
2023/11/09 14:13:09;;;;;;;5.60;2.90;;;;;;;11.08;66.69;99199.23;220146;1258;141269;-73
2023/11/09 14:23:29;;;;;;;2.00;1.80;;;;;;;10.81;67.20;99200.73;220072;1258;140388;-72
2023/11/09 14:28:32;;;;;;;2.20;1.50;;;;;;;10.68;67.41;99201.34;220218;1258;141271;-71
2023/11/09 14:33:36;;;;;;;3.10;1.80;;;;;;;10.55;67.52;99202.13;217638;1259;139818;-70
2023/11/09 14:38:47;;;;;;;2.30;2.10;;;;;;;10.40;67.73;99189.36;220309;1259;140151;-69
2023/11/09 14:43:50;;;;;;;3.80;2.40;;;;;;;10.21;67.98;99187.23;220128;1256;140035;-72
2023/11/09 14:48:56;;;;;;;1.40;1.30;;;;;;;10.09;68.14;99189.77;219042;1261;140562;-70
2023/11/09 14:54:00;;;;;;;3.90;2.90;;;;;;;9.95;68.29;99189.55;220270;1261;140234;-71
2023/11/09 14:59:04;;;;;;;2.60;2.30;;;;;;;9.83;68.62;99186.48;220196;1257;140553;-72
2023/11/09 15:04:09;;;;;;;5.00;2.80;;;;;;;9.75;68.93;99187.88;220329;1259;141508;-71
2023/11/09 15:09:19;;;;;;;2.90;2.30;;;;;;;9.68;69.07;99185.48;220274;1257;139506;-70
2023/11/09 15:14:23;;;;;;;4.20;3.30;;;;;;;9.61;69.25;99178.02;220362;1259;139706;-73
2023/11/09 15:19:27;;;;;;;2.10;1.90;;;;;;;9.51;69.18;99181.57;220218;1259;140433;-71
2023/11/09 15:24:31;;;;;;;3.20;2.70;;;;;;;9.42;69.30;99176.70;220087;1258;140312;-70
2023/11/09 15:29:49;;;;;;;3.70;3.30;;;;;;;9.29;69.52;99173.06;220288;1257;140121;-70
2023/11/09 15:34:55;;;;;;;;;;;;;;;9.16;69.55;99171.19;220326;1259;139741;-71
2023/11/09 15:40:00;;;;;;;6.40;3.60;;;;;;;9.02;69.87;99163.55;220611;1257;126026;-71
2023/11/09 15:45:26;;;;;;;12.80;6.90;;;;;;;8.94;70.07;99154.20;220168;1257;140471;-70
2023/11/09 15:50:31;;;;;;;8.20;3.60;;;;;;;8.89;70.33;99151.23;218918;1259;140095;-69
2023/11/09 15:55:34;;;;;;;12.90;4.50;;;;;;;8.86;70.53;99155.23;220065;1257;140212;-71
2023/11/09 16:00:41;;;;;;;5.20;3.50;;;;;;;8.81;70.53;99149.34;220184;1257;140268;-68
2023/11/09 16:05:46;;;;;;;9.80;4.70;;;;;;;8.72;70.57;99144.29;219593;1259;141051;-68
2023/11/09 16:10:50;;;;;;;7.80;4.60;;;;;;;8.66;70.67;99140.54;218690;1259;141822;-67
2023/11/09 16:15:55;;;;;;;5.90;4.30;;;;;;;8.60;70.98;99142.92;220166;1261;140587;-67
2023/11/09 16:20:59;;;;;;;7.40;4.90;;;;;;;8.53;70.89;99146.30;218024;1257;140146;-67
2023/11/09 16:26:03;;;;;;;10.30;6.10;;;;;;;8.47;71.28;99145.48;220436;1256;139995;-72
2023/11/09 16:31:08;;;;;;;7.80;5.30;;;;;;;8.40;71.42;99145.56;218474;1258;140225;-70
2023/11/09 16:36:13;;;;;;;10.30;6.60;;;;;;;8.32;71.41;99151.87;220225;1259;140185;-69
2023/11/09 16:41:18;;;;;;;13.20;5.20;;;;;;;8.26;71.52;99151.77;220090;1257;140751;-70
2023/11/09 16:46:23;;;;;;;11.20;6.20;;;;;;;8.20;71.58;99150.48;220116;1260;139929;-70
2023/11/09 16:51:25;;;;;;;10.60;6.40;;;;;;;8.13;71.72;99147.04;220070;1260;140569;-70
2023/11/09 16:56:27;;;;;;;11.80;5.90;;;;;;;8.07;71.72;99143.79;220147;1257;143558;-70
2023/11/09 17:01:30;;;;;;;15.20;7.40;;;;;;;8.02;72.03;99136.81;220006;1259;140323;-70
2023/11/09 17:06:37;;;;;;;19.00;8.40;;;;;;;7.97;72.22;99140.84;219898;1259;142499;-71
2023/11/09 17:11:50;;;;;;;13.20;6.40;;;;;;;7.94;72.52;99137.28;220022;1257;140266;-70
2023/11/09 17:17:11;;;;;;;9.90;6.00;;;;;;;7.90;72.42;99132.27;219933;1257;142074;-70
2023/11/09 17:22:16;;;;;;;8.70;5.60;;;;;;;7.87;72.66;99122.38;220077;1258;140294;-70
2023/11/09 17:27:21;;;;;;;9.00;5.70;;;;;;;7.87;73.04;99120.54;220031;1258;141956;-70
2023/11/09 17:32:28;;;;;;;12.00;7.20;;;;;;;7.89;73.41;99117.54;220148;1258;140574;-71
2023/11/09 17:37:37;;;;;;;8.30;5.20;;;;;;;7.93;73.76;99119.29;220034;1256;140208;-70
2023/11/09 17:42:49;;;;;;;;;;;;;;;7.99;73.89;99116.38;220113;1256;139765;-72
2023/11/09 17:47:56;;;;;;;9.20;6.00;;;;;;;8.06;74.30;99112.42;220420;1258;128273;-73
2023/11/09 17:52:59;;;;;;;6.80;5.20;;;;;;;8.13;74.38;99106.05;220072;1259;140587;-75
2023/11/09 17:58:07;;;;;;;6.30;4.70;;;;;;;8.20;74.65;99105.88;220009;1259;140307;-71
2023/11/09 18:03:13;;;;;;;7.10;5.00;;;;;;;8.26;74.57;99108.10;220057;1258;140085;-72
2023/11/09 18:08:19;;;;;;;9.10;6.70;;;;;;;8.30;74.78;99097.67;220284;1260;140896;-71
2023/11/09 18:13:26;;;;;;;7.00;6.20;;;;;;;8.32;74.48;99096.77;219992;1257;140402;-72
2023/11/09 18:18:28;;;;;;;9.60;6.10;;;;;;;8.31;74.61;99087.63;220046;1259;140345;-70
2023/11/09 18:23:31;;;;;;;7.60;5.20;;;;;;;8.30;74.65;99082.33;218717;1260;140088;-70
2023/11/09 18:28:46;;;;;;;6.80;5.10;;;;;;;8.28;74.74;99074.96;218981;1260;140381;-70
2023/11/09 18:33:55;;;;;;;11.10;6.60;;;;;;;8.26;74.86;99073.34;218843;1260;139515;-69
2023/11/09 18:39:01;;;;;;;12.20;5.20;;;;;;;8.24;74.76;99065.71;218887;1260;143132;-70
2023/11/09 18:44:04;;;;;;;12.10;7.70;;;;;;;8.21;74.97;99061.68;220344;1257;141190;-72
2023/11/09 18:49:09;;;;;;;8.30;5.80;;;;;;;8.20;74.91;99062.24;219779;1257;140483;-71
2023/11/09 18:54:15;;;;;;;9.70;5.60;;;;;;;8.21;74.99;99053.40;220317;1258;140043;-70
2023/11/09 18:59:18;;;;;;;10.20;5.50;;;;;;;8.20;75.25;99055.66;217899;1260;140684;-71
2023/11/09 19:04:21;;;;;;;6.70;5.50;;;;;;;8.21;75.02;99046.22;220000;1258;140506;-72
2023/11/09 19:09:26;;;;;;;5.60;4.10;;;;;;;8.21;75.17;99048.77;218501;1257;233443;-72
2023/11/09 19:14:31;;;;;;;8.50;6.20;;;;;;;8.22;75.34;99046.73;220015;1258;141886;-71
2023/11/09 19:19:34;;;;;;;6.00;5.00;;;;;;;8.23;75.24;99050.14;219986;1261;139927;-71
2023/11/09 19:24:44;;;;;;;6.50;4.90;;;;;;;8.24;75.31;99045.75;220160;1257;139915;-70
2023/11/09 19:29:48;;;;;;;10.60;5.30;;;;;;;8.23;75.32;99040.42;220032;1257;140287;-71
2023/11/09 19:34:52;;;;;;;6.80;4.40;;;;;;;8.23;75.37;99042.02;220099;1257;139436;-70
2023/11/09 19:39:54;;;;;;;5.50;5.00;;;;;;;8.22;75.20;99040.73;219967;1257;139799;-69
2023/11/09 19:44:59;;;;;;;7.40;4.70;;;;;;;8.22;75.40;99034.84;219979;1257;139959;-71
2023/11/09 19:50:03;;;;;;;4.50;4.00;;;;;;;8.19;75.33;99028.66;220092;1257;140768;-71
2023/11/09 19:55:07;;;;;;;6.20;4.90;;;;;;;8.16;75.41;99022.34;220109;1257;142163;-72
2023/11/09 20:00:14;;;;;;;7.40;5.30;;;;;;;8.13;75.43;99015.79;219996;1257;140516;-71
2023/11/09 20:05:18;;;;;;;9.50;6.30;;;;;;;8.10;75.37;99014.90;220011;1257;139740;-72
2023/11/09 20:10:23;;;;;;;8.40;5.70;;;;;;;8.09;75.46;99015.73;220011;1258;140021;-72
2023/11/09 20:15:30;;;;;;;7.30;6.20;;;;;;;8.09;75.67;99019.58;219784;1257;140440;-71
2023/11/09 20:20:33;;;;;;;6.20;4.60;;;;;;;8.08;75.81;99022.17;220159;1256;140459;-72
2023/11/09 20:25:38;;;;;;;6.20;5.60;;;;;;;8.08;75.74;99017.39;220097;1257;139806;-71
2023/11/09 20:30:41;;;;;;;11.20;5.30;;;;;;;8.07;75.90;99011.05;218215;1257;140119;-73
2023/11/09 20:35:46;;;;;;;7.50;5.10;;;;;;;8.04;75.73;99006.53;219880;1257;140467;-70
2023/11/09 20:40:51;;;;;;;8.70;4.70;;;;;;;8.01;75.98;99003.52;219632;1256;139666;-71
2023/11/09 20:45:54;;;;;;;7.20;4.60;;;;;;;8.00;76.15;99000.03;220202;1257;139785;-72
2023/11/09 20:50:58;;;;;;;11.20;6.70;;;;;;;7.98;76.18;98997.17;220077;1257;139836;-71
2023/11/09 20:56:01;;;;;;;8.00;5.00;;;;;;;7.97;76.41;98993.77;219289;1257;139978;-71
2023/11/09 21:01:05;;;;;;;6.70;4.60;;;;;;;7.96;76.22;98989.02;220412;1256;140775;-71
2023/11/09 21:06:12;;;;;;;11.70;5.50;;;;;;;7.93;76.23;98985.53;218620;1256;140520;-70
2023/11/09 21:11:16;;;;;;;6.70;5.50;;;;;;;7.89;76.45;98978.61;220393;1257;140518;-72
2023/11/09 21:16:21;;;;;;;8.50;6.40;;;;;;;7.87;76.26;98978.92;220246;1256;140022;-71
2023/11/09 21:21:24;;;;;;;12.90;5.90;;;;;;;7.83;76.44;98975.61;219823;1257;140042;-69
2023/11/09 21:26:27;;;;;;;11.40;5.60;;;;;;;7.78;76.64;98981.50;220501;1256;140519;-71
2023/11/09 21:31:31;;;;;;;8.40;6.00;;;;;;;7.73;76.37;98980.61;220398;1257;140503;-70
2023/11/09 21:36:35;;;;;;;10.00;6.30;;;;;;;7.68;76.68;98978.38;220257;1256;139924;-70
2023/11/09 21:41:43;;;;;;;11.10;6.20;;;;;;;7.65;76.81;98972.21;220214;1256;141735;-70
2023/11/09 21:46:47;;;;;;;8.50;5.60;;;;;;;7.60;76.72;98967.95;220361;1256;141204;-71
2023/11/09 21:51:51;;;;;;;4.70;4.30;;;;;;;7.56;76.85;98968.39;220314;1257;139389;-70
2023/11/09 21:56:56;;;;;;;7.70;6.20;;;;;;;7.54;76.97;98965.14;220259;1256;140191;-69
2023/11/09 22:01:59;;;;;;;9.20;6.50;;;;;;;7.46;76.90;98960.95;220317;1256;141768;-71
2023/11/09 22:07:01;;;;;;;7.70;4.70;;;;;;;7.39;76.92;98959.52;220290;1256;140221;-72
2023/11/09 22:12:05;;;;;;;6.40;5.30;;;;;;;7.33;77.19;98968.01;220167;1257;140412;-70
2023/11/09 22:17:07;;;;;;;11.20;5.70;;;;;;;7.30;77.47;98968.52;219112;1257;140590;-74
2023/11/09 22:22:10;;;;;;;10.40;5.70;;;;;;;7.25;77.71;98973.71;219944;1257;140470;-72
2023/11/09 22:27:13;;;;;;;9.90;6.10;;;;;;;7.18;77.46;98974.77;219666;1258;141900;-70
2023/11/09 22:32:17;;;;;;;11.00;6.20;;;;;;;7.13;77.50;98970.93;220058;1256;140303;-70
2023/11/09 22:37:20;;;;;;;8.50;6.60;;;;;;;7.07;77.72;98971.55;220002;1257;140414;-70
2023/11/09 22:42:23;;;;;;;8.20;6.60;;;;;;;7.03;77.57;98971.36;220006;1257;142046;-70
2023/11/09 22:47:26;;;;;;;11.30;6.50;;;;;;;6.97;77.96;98976.36;220107;1257;139738;-70
2023/11/09 22:52:29;;;;;;;9.00;6.80;;;;;;;6.91;77.91;98975.32;220258;1256;140092;-70
2023/11/09 22:57:31;;;;;;;8.50;5.50;;;;;;;6.85;78.19;98975.28;220155;1257;236384;-70
2023/11/09 23:02:34;;;;;;;8.00;6.40;;;;;;;6.81;78.13;98979.34;218519;1257;139331;-69
2023/11/09 23:07:39;;;;;;;10.20;7.40;;;;;;;6.74;78.36;98986.40;220057;1256;140223;-71
2023/11/09 23:12:42;;;;;;;9.40;6.60;;;;;;;6.67;78.35;98983.77;219755;1256;144306;-69
2023/11/09 23:17:45;;;;;;;12.60;7.60;;;;;;;6.65;78.29;98979.09;220206;1256;140182;-69
2023/11/09 23:22:49;;;;;;;11.70;7.30;;;;;;;6.62;78.71;98984.15;220377;1256;139643;-71
2023/11/09 23:27:55;;;;;;;9.60;7.30;;;;;;;6.55;78.37;98976.83;219883;1257;139285;-70
2023/11/09 23:32:59;;;;;;;8.10;6.70;;;;;;;6.52;78.53;98973.73;220188;1257;140894;-72
2023/11/09 23:38:03;;;;;;;11.70;8.80;;;;;;;6.48;78.63;98965.89;220246;1257;140174;-71
2023/11/09 23:43:06;;;;;;;11.70;8.70;;;;;;;6.43;78.31;98962.38;220042;1257;141674;-72
2023/11/09 23:48:09;;;;;;;12.00;8.10;;;;;;;6.34;78.74;98964.23;220107;1257;140457;-71